This is the latest recevied weather packets stored in our database for station/object AJ7DN. If no packets are shown the sender has not sent any weather packets the latest 10 day(s).
| Time | Temp. | Humidity | Pressure | Rain* | Wind** | Luminosity | Snow |
|---|---|---|---|---|---|---|---|
| 1777581849 | 25.56° C | 38% | 1020.8 hPa | 0 mm | - | 669 W/m² | - |
| 1777581549 | 25.56° C | 37% | 1021.1 hPa | 0 mm | - | 480 W/m² | - |
| 1777581245 | 25.56° C | 39% | 1021 hPa | 0 mm | - | 672 W/m² | - |
| 1777580945 | 25° C | 40% | 1021 hPa | 0 mm | - | 596 W/m² | - |
| 1777580639 | 25° C | 38% | 1021.1 hPa | 0 mm | - | 604 W/m² | - |
| 1777580335 | 25° C | 39% | 1021.1 hPa | 0 mm | - | 583 W/m² | - |
| 1777580032 | 24.44° C | 40% | 1021.3 hPa | 0 mm | - | 508 W/m² | - |
| 1777579728 | 23.89° C | 40% | 1021.4 hPa | 0 mm | - | 430 W/m² | - |
| 1777579426 | 23.33° C | 39% | 1021.3 hPa | 0 mm | - | 373 W/m² | - |
| 1777579122 | 23.89° C | 41% | 1021.6 hPa | 0 mm | - | 345 W/m² | - |
| 1777578821 | 23.33° C | 41% | 1021.4 hPa | 0 mm | - | 395 W/m² | - |
| 1777578517 | 23.89° C | 40% | 1021.9 hPa | 0 mm | - | 414 W/m² | - |
| 1777578212 | 23.33° C | 43% | 1021.7 hPa | 0 mm | - | 498 W/m² | - |
| 1777577908 | 23.33° C | 41% | 1021.8 hPa | 0 mm | - | 493 W/m² | - |
| 1777577603 | 23.33° C | 43% | 1021.7 hPa | 0 mm | - | 508 W/m² | - |
| 1777577301 | 22.78° C | 43% | 1021.9 hPa | 0 mm | - | 464 W/m² | - |
| 1777576997 | 22.78° C | 43% | 1021.8 hPa | 0 mm | - | 427 W/m² | - |
| 1777576694 | 22.78° C | 42% | 1022.1 hPa | 0 mm | - | 484 W/m² | - |
| 1777576392 | 23.33° C | 43% | 1022.2 hPa | 0 mm | - | 484 W/m² | - |
| 1777576089 | 22.78° C | 43% | 1022.3 hPa | 0 mm | - | 494 W/m² | - |
| 1777575785 | 22.78° C | 43% | 1022 hPa | 0 mm | - | 567 W/m² | - |
| 1777575482 | 22.22° C | 44% | 1022.2 hPa | 0 mm | - | 551 W/m² | - |
| 1777575177 | 22.78° C | 46% | 1022.3 hPa | 0 mm | - | 568 W/m² | - |
| 1777574873 | 22.22° C | 47% | 1022 hPa | 0 mm | - | 726 W/m² | - |
| 1777574571 | 22.22° C | 48% | 1022.3 hPa | 0 mm | - | 653 W/m² | - |
* Rain latest hour (hover to see other rain measurements)
** Current wind speed in m/s (hover to see current wind gust speed)